sensor_id;sensor_type;location;lat;lon;timestamp;P1;durP1;ratioP1;P2;durP2;ratioP2
69008;SDS011;56065;52.472;13.380;2022-12-07T00:00:55;10.95;;;4.07;;
69008;SDS011;56065;52.472;13.380;2022-12-07T00:03:21;11.20;;;4.13;;
69008;SDS011;56065;52.472;13.380;2022-12-07T00:05:46;14.37;;;4.83;;
69008;SDS011;56065;52.472;13.380;2022-12-07T00:08:11;12.32;;;4.95;;
69008;SDS011;56065;52.472;13.380;2022-12-07T00:10:37;13.13;;;4.70;;
69008;SDS011;56065;52.472;13.380;2022-12-07T00:13:02;11.47;;;4.40;;
69008;SDS011;56065;52.472;13.380;2022-12-07T00:15:27;12.63;;;4.63;;
69008;SDS011;56065;52.472;13.380;2022-12-07T00:17:53;11.87;;;4.90;;
69008;SDS011;56065;52.472;13.380;2022-12-07T00:20:18;12.40;;;4.83;;
69008;SDS011;56065;52.472;13.380;2022-12-07T00:22:43;12.75;;;5.03;;
69008;SDS011;56065;52.472;13.380;2022-12-07T00:25:09;13.40;;;4.70;;
69008;SDS011;56065;52.472;13.380;2022-12-07T00:27:34;12.23;;;4.40;;
69008;SDS011;56065;52.472;13.380;2022-12-07T00:29:59;11.20;;;4.40;;
69008;SDS011;56065;52.472;13.380;2022-12-07T00:32:25;12.20;;;4.67;;
69008;SDS011;56065;52.472;13.380;2022-12-07T00:34:51;12.00;;;4.70;;
69008;SDS011;56065;52.472;13.380;2022-12-07T00:37:16;13.17;;;4.70;;
69008;SDS011;56065;52.472;13.380;2022-12-07T00:39:41;13.07;;;5.07;;
69008;SDS011;56065;52.472;13.380;2022-12-07T00:42:07;9.40;;;3.57;;
69008;SDS011;56065;52.472;13.380;2022-12-07T00:44:32;10.57;;;4.10;;
69008;SDS011;56065;52.472;13.380;2022-12-07T00:46:57;11.23;;;4.40;;
69008;SDS011;56065;52.472;13.380;2022-12-07T00:49:23;11.68;;;4.50;;
69008;SDS011;56065;52.472;13.380;2022-12-07T00:51:48;9.53;;;3.60;;
69008;SDS011;56065;52.472;13.380;2022-12-07T00:54:14;10.60;;;4.27;;
69008;SDS011;56065;52.472;13.380;2022-12-07T00:56:39;11.90;;;4.93;;
69008;SDS011;56065;52.472;13.380;2022-12-07T00:59:05;9.87;;;3.80;;
69008;SDS011;56065;52.472;13.380;2022-12-07T01:01:32;10.70;;;3.83;;
69008;SDS011;56065;52.472;13.380;2022-12-07T01:03:59;11.35;;;4.57;;
69008;SDS011;56065;52.472;13.380;2022-12-07T01:06:28;9.95;;;4.20;;
69008;SDS011;56065;52.472;13.380;2022-12-07T01:08:54;8.98;;;3.53;;
69008;SDS011;56065;52.472;13.380;2022-12-07T01:11:22;11.60;;;4.23;;
69008;SDS011;56065;52.472;13.380;2022-12-07T01:13:52;11.25;;;3.92;;
69008;SDS011;56065;52.472;13.380;2022-12-07T01:16:19;12.07;;;4.40;;
69008;SDS011;56065;52.472;13.380;2022-12-07T01:18:47;10.05;;;3.92;;
69008;SDS011;56065;52.472;13.380;2022-12-07T01:21:18;9.73;;;3.80;;
69008;SDS011;56065;52.472;13.380;2022-12-07T01:23:46;8.23;;;3.35;;
69008;SDS011;56065;52.472;13.380;2022-12-07T01:26:13;8.95;;;3.17;;
69008;SDS011;56065;52.472;13.380;2022-12-07T01:28:40;10.48;;;3.65;;
69008;SDS011;56065;52.472;13.380;2022-12-07T01:31:09;8.20;;;3.30;;
69008;SDS011;56065;52.472;13.380;2022-12-07T01:33:37;8.82;;;3.08;;
69008;SDS011;56065;52.472;13.380;2022-12-07T01:36:05;8.20;;;3.00;;
69008;SDS011;56065;52.472;13.380;2022-12-07T01:38:38;7.65;;;2.97;;
69008;SDS011;56065;52.472;13.380;2022-12-07T01:41:04;8.90;;;3.20;;
69008;SDS011;56065;52.472;13.380;2022-12-07T01:43:30;8.70;;;3.20;;
69008;SDS011;56065;52.472;13.380;2022-12-07T01:45:57;8.40;;;3.13;;
69008;SDS011;56065;52.472;13.380;2022-12-07T01:48:24;8.93;;;3.60;;
69008;SDS011;56065;52.472;13.380;2022-12-07T01:50:53;9.82;;;3.65;;
69008;SDS011;56065;52.472;13.380;2022-12-07T01:53:22;10.10;;;3.40;;
69008;SDS011;56065;52.472;13.380;2022-12-07T01:55:51;9.32;;;2.70;;
69008;SDS011;56065;52.472;13.380;2022-12-07T01:58:17;8.18;;;3.03;;
69008;SDS011;56065;52.472;13.380;2022-12-07T02:00:43;8.23;;;3.10;;
69008;SDS011;56065;52.472;13.380;2022-12-07T02:03:16;8.10;;;3.30;;
69008;SDS011;56065;52.472;13.380;2022-12-07T02:05:46;8.00;;;2.73;;
69008;SDS011;56065;52.472;13.380;2022-12-07T02:08:14;9.43;;;3.67;;
69008;SDS011;56065;52.472;13.380;2022-12-07T02:10:39;11.52;;;3.35;;
69008;SDS011;56065;52.472;13.380;2022-12-07T02:13:10;8.97;;;3.30;;
69008;SDS011;56065;52.472;13.380;2022-12-07T02:31:24;7.97;;;2.72;;
69008;SDS011;56065;52.472;13.380;2022-12-07T02:33:54;7.95;;;2.67;;
69008;SDS011;56065;52.472;13.380;2022-12-07T02:36:31;7.05;;;2.47;;
69008;SDS011;56065;52.472;13.380;2022-12-07T02:41:46;9.85;;;3.38;;
69008;SDS011;56065;52.472;13.380;2022-12-07T02:44:19;8.07;;;3.00;;
69008;SDS011;56065;52.472;13.380;2022-12-07T02:46:52;8.38;;;2.83;;
69008;SDS011;56065;52.472;13.380;2022-12-07T02:49:21;8.30;;;3.17;;
69008;SDS011;56065;52.472;13.380;2022-12-07T02:51:48;9.77;;;3.20;;
69008;SDS011;56065;52.472;13.380;2022-12-07T02:54:14;7.35;;;2.58;;
69008;SDS011;56065;52.472;13.380;2022-12-07T03:07:23;10.52;;;3.50;;
69008;SDS011;56065;52.472;13.380;2022-12-07T03:10:12;8.37;;;2.57;;
69008;SDS011;56065;52.472;13.380;2022-12-07T03:12:46;9.23;;;3.72;;
69008;SDS011;56065;52.472;13.380;2022-12-07T03:15:22;9.32;;;3.53;;
69008;SDS011;56065;52.472;13.380;2022-12-07T03:17:59;10.20;;;3.65;;
69008;SDS011;56065;52.472;13.380;2022-12-07T03:20:28;9.07;;;3.35;;
69008;SDS011;56065;52.472;13.380;2022-12-07T03:22:54;8.70;;;3.10;;
69008;SDS011;56065;52.472;13.380;2022-12-07T03:25:21;12.10;;;4.35;;
69008;SDS011;56065;52.472;13.380;2022-12-07T03:27:54;10.15;;;3.70;;
69008;SDS011;56065;52.472;13.380;2022-12-07T03:30:24;9.70;;;3.47;;
69008;SDS011;56065;52.472;13.380;2022-12-07T03:33:06;8.30;;;3.40;;
69008;SDS011;56065;52.472;13.380;2022-12-07T03:35:39;9.13;;;3.50;;
69008;SDS011;56065;52.472;13.380;2022-12-07T03:38:18;10.75;;;4.00;;
69008;SDS011;56065;52.472;13.380;2022-12-07T03:40:48;10.68;;;4.40;;
69008;SDS011;56065;52.472;13.380;2022-12-07T03:43:19;12.15;;;4.20;;
69008;SDS011;56065;52.472;13.380;2022-12-07T03:45:55;12.53;;;3.73;;
69008;SDS011;56065;52.472;13.380;2022-12-07T03:48:46;10.55;;;3.60;;
69008;SDS011;56065;52.472;13.380;2022-12-07T03:51:36;13.13;;;3.97;;
69008;SDS011;56065;52.472;13.380;2022-12-07T03:56:52;10.27;;;4.13;;
69008;SDS011;56065;52.472;13.380;2022-12-07T03:59:19;10.87;;;4.03;;
69008;SDS011;56065;52.472;13.380;2022-12-07T04:01:45;13.07;;;4.55;;
69008;SDS011;56065;52.472;13.380;2022-12-07T04:04:17;13.48;;;4.53;;
69008;SDS011;56065;52.472;13.380;2022-12-07T04:06:42;15.13;;;5.07;;
69008;SDS011;56065;52.472;13.380;2022-12-07T04:09:08;13.87;;;5.13;;
69008;SDS011;56065;52.472;13.380;2022-12-07T04:11:33;12.68;;;4.95;;
69008;SDS011;56065;52.472;13.380;2022-12-07T04:13:58;14.85;;;5.80;;
69008;SDS011;56065;52.472;13.380;2022-12-07T04:16:42;14.00;;;4.57;;
69008;SDS011;56065;52.472;13.380;2022-12-07T04:19:08;15.63;;;5.85;;
69008;SDS011;56065;52.472;13.380;2022-12-07T04:21:33;15.07;;;6.50;;
69008;SDS011;56065;52.472;13.380;2022-12-07T04:23:58;18.70;;;6.43;;
69008;SDS011;56065;52.472;13.380;2022-12-07T04:26:24;17.53;;;5.97;;
69008;SDS011;56065;52.472;13.380;2022-12-07T04:28:49;19.93;;;6.63;;
69008;SDS011;56065;52.472;13.380;2022-12-07T04:31:14;13.33;;;5.00;;
69008;SDS011;56065;52.472;13.380;2022-12-07T04:33:40;17.10;;;6.33;;
69008;SDS011;56065;52.472;13.380;2022-12-07T04:36:05;23.77;;;8.00;;
69008;SDS011;56065;52.472;13.380;2022-12-07T04:38:31;16.55;;;5.82;;
69008;SDS011;56065;52.472;13.380;2022-12-07T04:40:56;21.77;;;7.47;;
69008;SDS011;56065;52.472;13.380;2022-12-07T04:43:21;20.77;;;6.90;;
69008;SDS011;56065;52.472;13.380;2022-12-07T04:45:47;17.77;;;6.57;;
69008;SDS011;56065;52.472;13.380;2022-12-07T04:48:13;18.08;;;6.72;;
69008;SDS011;56065;52.472;13.380;2022-12-07T04:50:39;19.13;;;6.65;;
69008;SDS011;56065;52.472;13.380;2022-12-07T04:53:05;15.83;;;6.80;;
69008;SDS011;56065;52.472;13.380;2022-12-07T04:55:30;18.43;;;7.17;;
69008;SDS011;56065;52.472;13.380;2022-12-07T04:57:55;18.98;;;7.43;;
69008;SDS011;56065;52.472;13.380;2022-12-07T05:00:21;21.73;;;7.90;;
69008;SDS011;56065;52.472;13.380;2022-12-07T05:02:46;26.10;;;8.27;;
69008;SDS011;56065;52.472;13.380;2022-12-07T05:05:11;19.53;;;7.47;;
69008;SDS011;56065;52.472;13.380;2022-12-07T05:07:37;22.40;;;8.47;;
69008;SDS011;56065;52.472;13.380;2022-12-07T05:10:02;20.80;;;7.47;;
69008;SDS011;56065;52.472;13.380;2022-12-07T05:12:28;25.45;;;8.88;;
69008;SDS011;56065;52.472;13.380;2022-12-07T05:14:53;20.80;;;8.00;;
69008;SDS011;56065;52.472;13.380;2022-12-07T05:17:18;23.07;;;8.60;;
69008;SDS011;56065;52.472;13.380;2022-12-07T05:19:44;22.67;;;8.27;;
69008;SDS011;56065;52.472;13.380;2022-12-07T05:22:09;23.33;;;8.73;;
69008;SDS011;56065;52.472;13.380;2022-12-07T05:24:35;23.42;;;8.20;;
69008;SDS011;56065;52.472;13.380;2022-12-07T05:27:00;23.73;;;8.13;;
69008;SDS011;56065;52.472;13.380;2022-12-07T05:29:26;26.90;;;9.17;;
69008;SDS011;56065;52.472;13.380;2022-12-07T05:31:51;24.93;;;8.87;;
69008;SDS011;56065;52.472;13.380;2022-12-07T05:34:16;23.37;;;9.43;;
69008;SDS011;56065;52.472;13.380;2022-12-07T05:36:42;23.27;;;8.40;;
69008;SDS011;56065;52.472;13.380;2022-12-07T05:39:07;25.67;;;8.60;;
69008;SDS011;56065;52.472;13.380;2022-12-07T05:41:33;21.73;;;7.80;;
69008;SDS011;56065;52.472;13.380;2022-12-07T05:44:16;25.35;;;8.65;;
69008;SDS011;56065;52.472;13.380;2022-12-07T05:46:42;25.80;;;9.47;;
69008;SDS011;56065;52.472;13.380;2022-12-07T05:49:07;26.60;;;9.57;;
69008;SDS011;56065;52.472;13.380;2022-12-07T05:51:33;22.73;;;9.13;;
69008;SDS011;56065;52.472;13.380;2022-12-07T05:53:58;24.88;;;8.85;;
69008;SDS011;56065;52.472;13.380;2022-12-07T05:56:23;25.20;;;8.97;;
69008;SDS011;56065;52.472;13.380;2022-12-07T05:58:49;27.40;;;10.17;;
69008;SDS011;56065;52.472;13.380;2022-12-07T06:01:33;34.65;;;11.07;;
69008;SDS011;56065;52.472;13.380;2022-12-07T06:03:58;25.53;;;9.63;;
69008;SDS011;56065;52.472;13.380;2022-12-07T06:06:24;28.87;;;10.27;;
69008;SDS011;56065;52.472;13.380;2022-12-07T06:08:49;23.55;;;8.57;;
69008;SDS011;56065;52.472;13.380;2022-12-07T06:11:15;26.67;;;9.33;;
69008;SDS011;56065;52.472;13.380;2022-12-07T06:13:58;29.17;;;10.13;;
69008;SDS011;56065;52.472;13.380;2022-12-07T06:16:24;24.17;;;9.70;;
69008;SDS011;56065;52.472;13.380;2022-12-07T06:18:49;23.43;;;8.70;;
69008;SDS011;56065;52.472;13.380;2022-12-07T06:21:14;24.53;;;9.37;;
69008;SDS011;56065;52.472;13.380;2022-12-07T06:23:40;25.53;;;9.47;;
69008;SDS011;56065;52.472;13.380;2022-12-07T06:26:05;28.43;;;10.80;;
69008;SDS011;56065;52.472;13.380;2022-12-07T06:28:30;28.27;;;10.43;;
69008;SDS011;56065;52.472;13.380;2022-12-07T06:30:56;27.40;;;10.33;;
69008;SDS011;56065;52.472;13.380;2022-12-07T06:33:26;25.50;;;9.70;;
69008;SDS011;56065;52.472;13.380;2022-12-07T06:35:52;25.23;;;9.45;;
69008;SDS011;56065;52.472;13.380;2022-12-07T06:38:17;31.53;;;10.13;;
69008;SDS011;56065;52.472;13.380;2022-12-07T06:40:43;24.03;;;8.77;;
69008;SDS011;56065;52.472;13.380;2022-12-07T06:43:08;21.20;;;8.70;;
69008;SDS011;56065;52.472;13.380;2022-12-07T06:45:33;25.80;;;9.88;;
69008;SDS011;56065;52.472;13.380;2022-12-07T06:47:59;31.07;;;11.23;;
69008;SDS011;56065;52.472;13.380;2022-12-07T06:50:24;27.20;;;10.30;;
69008;SDS011;56065;52.472;13.380;2022-12-07T06:52:50;24.97;;;9.60;;
69008;SDS011;56065;52.472;13.380;2022-12-07T06:55:16;28.05;;;11.07;;
69008;SDS011;56065;52.472;13.380;2022-12-07T06:57:41;37.33;;;12.77;;
69008;SDS011;56065;52.472;13.380;2022-12-07T07:00:07;33.73;;;10.23;;
69008;SDS011;56065;52.472;13.380;2022-12-07T07:02:33;27.50;;;10.77;;
69008;SDS011;56065;52.472;13.380;2022-12-07T07:04:58;31.13;;;10.70;;
69008;SDS011;56065;52.472;13.380;2022-12-07T07:07:24;28.87;;;11.17;;
69008;SDS011;56065;52.472;13.380;2022-12-07T07:09:49;27.43;;;9.57;;
69008;SDS011;56065;52.472;13.380;2022-12-07T07:12:14;26.43;;;10.07;;
69008;SDS011;56065;52.472;13.380;2022-12-07T07:14:40;23.27;;;9.10;;
69008;SDS011;56065;52.472;13.380;2022-12-07T07:17:05;27.03;;;10.20;;
69008;SDS011;56065;52.472;13.380;2022-12-07T07:19:30;25.33;;;10.03;;
69008;SDS011;56065;52.472;13.380;2022-12-07T07:21:56;22.27;;;9.10;;
69008;SDS011;56065;52.472;13.380;2022-12-07T07:24:21;25.60;;;9.87;;
69008;SDS011;56065;52.472;13.380;2022-12-07T07:26:46;24.97;;;9.40;;
69008;SDS011;56065;52.472;13.380;2022-12-07T07:29:12;19.88;;;8.13;;
69008;SDS011;56065;52.472;13.380;2022-12-07T07:31:37;24.23;;;9.07;;
69008;SDS011;56065;52.472;13.380;2022-12-07T07:34:02;20.90;;;8.53;;
69008;SDS011;56065;52.472;13.380;2022-12-07T07:36:28;18.57;;;7.70;;
69008;SDS011;56065;52.472;13.380;2022-12-07T07:38:53;20.70;;;7.87;;
69008;SDS011;56065;52.472;13.380;2022-12-07T07:41:18;20.77;;;7.77;;
69008;SDS011;56065;52.472;13.380;2022-12-07T07:43:44;21.87;;;7.90;;
69008;SDS011;56065;52.472;13.380;2022-12-07T07:46:09;18.07;;;7.07;;
69008;SDS011;56065;52.472;13.380;2022-12-07T07:48:35;18.13;;;7.10;;
69008;SDS011;56065;52.472;13.380;2022-12-07T07:51:00;24.10;;;8.03;;
69008;SDS011;56065;52.472;13.380;2022-12-07T07:53:30;18.92;;;7.63;;
69008;SDS011;56065;52.472;13.380;2022-12-07T07:55:55;20.70;;;8.10;;
69008;SDS011;56065;52.472;13.380;2022-12-07T07:58:21;20.63;;;8.00;;
69008;SDS011;56065;52.472;13.380;2022-12-07T08:00:46;20.07;;;6.80;;
69008;SDS011;56065;52.472;13.380;2022-12-07T08:03:12;15.93;;;6.20;;
69008;SDS011;56065;52.472;13.380;2022-12-07T08:05:37;16.27;;;5.37;;
69008;SDS011;56065;52.472;13.380;2022-12-07T08:08:03;14.35;;;5.53;;
69008;SDS011;56065;52.472;13.380;2022-12-07T08:10:28;16.70;;;6.60;;
69008;SDS011;56065;52.472;13.380;2022-12-07T08:12:54;15.17;;;6.23;;
69008;SDS011;56065;52.472;13.380;2022-12-07T08:15:39;13.90;;;5.53;;
69008;SDS011;56065;52.472;13.380;2022-12-07T08:18:06;13.85;;;5.60;;
69008;SDS011;56065;52.472;13.380;2022-12-07T08:20:32;14.17;;;5.50;;
69008;SDS011;56065;52.472;13.380;2022-12-07T08:22:59;17.60;;;4.88;;
69008;SDS011;56065;52.472;13.380;2022-12-07T08:25:24;11.83;;;4.73;;
69008;SDS011;56065;52.472;13.380;2022-12-07T08:27:51;12.32;;;4.05;;
69008;SDS011;56065;52.472;13.380;2022-12-07T08:30:16;12.27;;;3.80;;
69008;SDS011;56065;52.472;13.380;2022-12-07T08:32:43;10.37;;;2.97;;
69008;SDS011;56065;52.472;13.380;2022-12-07T08:35:09;9.10;;;3.30;;
69008;SDS011;56065;52.472;13.380;2022-12-07T08:37:35;7.30;;;2.43;;
69008;SDS011;56065;52.472;13.380;2022-12-07T08:40:00;7.73;;;1.83;;
69008;SDS011;56065;52.472;13.380;2022-12-07T08:42:26;6.13;;;1.92;;
69008;SDS011;56065;52.472;13.380;2022-12-07T08:44:54;5.40;;;1.60;;
69008;SDS011;56065;52.472;13.380;2022-12-07T08:47:22;5.22;;;1.50;;
69008;SDS011;56065;52.472;13.380;2022-12-07T08:49:48;6.47;;;1.50;;
69008;SDS011;56065;52.472;13.380;2022-12-07T08:52:16;3.60;;;1.08;;
69008;SDS011;56065;52.472;13.380;2022-12-07T08:54:41;6.70;;;1.10;;
69008;SDS011;56065;52.472;13.380;2022-12-07T08:57:07;5.35;;;1.27;;
69008;SDS011;56065;52.472;13.380;2022-12-07T08:59:34;4.47;;;1.20;;
69008;SDS011;56065;52.472;13.380;2022-12-07T09:02:01;4.80;;;1.42;;
69008;SDS011;56065;52.472;13.380;2022-12-07T09:04:27;6.30;;;1.60;;
69008;SDS011;56065;52.472;13.380;2022-12-07T09:06:53;4.97;;;1.33;;
69008;SDS011;56065;52.472;13.380;2022-12-07T09:09:19;5.10;;;1.38;;
69008;SDS011;56065;52.472;13.380;2022-12-07T09:11:45;5.63;;;1.50;;
69008;SDS011;56065;52.472;13.380;2022-12-07T09:14:10;4.47;;;1.50;;
69008;SDS011;56065;52.472;13.380;2022-12-07T09:16:37;5.35;;;1.58;;
69008;SDS011;56065;52.472;13.380;2022-12-07T09:19:02;4.43;;;1.40;;
69008;SDS011;56065;52.472;13.380;2022-12-07T09:21:28;4.70;;;1.05;;
69008;SDS011;56065;52.472;13.380;2022-12-07T09:23:54;4.38;;;1.27;;
69008;SDS011;56065;52.472;13.380;2022-12-07T09:26:20;5.93;;;1.57;;
69008;SDS011;56065;52.472;13.380;2022-12-07T09:28:45;6.40;;;1.30;;
69008;SDS011;56065;52.472;13.380;2022-12-07T09:31:10;6.00;;;1.50;;
69008;SDS011;56065;52.472;13.380;2022-12-07T09:33:36;5.07;;;1.33;;
69008;SDS011;56065;52.472;13.380;2022-12-07T09:36:01;5.77;;;1.80;;
69008;SDS011;56065;52.472;13.380;2022-12-07T09:38:28;3.47;;;1.33;;
69008;SDS011;56065;52.472;13.380;2022-12-07T09:40:55;4.70;;;1.30;;
69008;SDS011;56065;52.472;13.380;2022-12-07T09:43:24;5.13;;;1.40;;
69008;SDS011;56065;52.472;13.380;2022-12-07T09:45:51;5.37;;;1.20;;
69008;SDS011;56065;52.472;13.380;2022-12-07T09:48:23;3.65;;;1.10;;
69008;SDS011;56065;52.472;13.380;2022-12-07T09:50:54;5.97;;;1.73;;
69008;SDS011;56065;52.472;13.380;2022-12-07T09:53:33;5.07;;;1.48;;
69008;SDS011;56065;52.472;13.380;2022-12-07T09:56:01;4.45;;;1.42;;
69008;SDS011;56065;52.472;13.380;2022-12-07T09:58:27;4.33;;;1.30;;
69008;SDS011;56065;52.472;13.380;2022-12-07T10:03:32;5.55;;;1.65;;
69008;SDS011;56065;52.472;13.380;2022-12-07T10:05:58;4.15;;;1.27;;
69008;SDS011;56065;52.472;13.380;2022-12-07T10:08:24;4.35;;;1.42;;
69008;SDS011;56065;52.472;13.380;2022-12-07T10:10:54;4.87;;;1.37;;
69008;SDS011;56065;52.472;13.380;2022-12-07T10:16:03;6.03;;;1.70;;
69008;SDS011;56065;52.472;13.380;2022-12-07T10:18:36;8.95;;;1.85;;
69008;SDS011;56065;52.472;13.380;2022-12-07T10:26:37;4.65;;;1.30;;
69008;SDS011;56065;52.472;13.380;2022-12-07T10:31:53;4.78;;;1.50;;
69008;SDS011;56065;52.472;13.380;2022-12-07T10:34:22;5.00;;;1.40;;
69008;SDS011;56065;52.472;13.380;2022-12-07T10:36:50;3.93;;;1.10;;
69008;SDS011;56065;52.472;13.380;2022-12-07T10:39:17;4.97;;;1.20;;
69008;SDS011;56065;52.472;13.380;2022-12-07T10:44:29;6.95;;;1.48;;
69008;SDS011;56065;52.472;13.380;2022-12-07T10:49:52;5.00;;;1.93;;
69008;SDS011;56065;52.472;13.380;2022-12-07T11:01:22;5.95;;;1.77;;
69008;SDS011;56065;52.472;13.380;2022-12-07T11:03:47;6.50;;;2.00;;
69008;SDS011;56065;52.472;13.380;2022-12-07T11:06:38;4.75;;;1.60;;
69008;SDS011;56065;52.472;13.380;2022-12-07T11:18:06;5.60;;;1.93;;
69008;SDS011;56065;52.472;13.380;2022-12-07T11:26:07;6.13;;;1.83;;
69008;SDS011;56065;52.472;13.380;2022-12-07T11:34:42;9.85;;;2.05;;
69008;SDS011;56065;52.472;13.380;2022-12-07T11:37:16;6.00;;;1.83;;
69008;SDS011;56065;52.472;13.380;2022-12-07T11:39:49;6.45;;;1.92;;
69008;SDS011;56065;52.472;13.380;2022-12-07T11:42:27;6.95;;;2.30;;
69008;SDS011;56065;52.472;13.380;2022-12-07T11:45:10;5.73;;;1.97;;
69008;SDS011;56065;52.472;13.380;2022-12-07T11:47:59;8.38;;;2.15;;
69008;SDS011;56065;52.472;13.380;2022-12-07T11:58:20;9.80;;;2.00;;
69008;SDS011;56065;52.472;13.380;2022-12-07T12:00:48;6.95;;;1.80;;
69008;SDS011;56065;52.472;13.380;2022-12-07T12:03:19;6.70;;;1.67;;
69008;SDS011;56065;52.472;13.380;2022-12-07T12:05:55;7.15;;;1.42;;
69008;SDS011;56065;52.472;13.380;2022-12-07T12:08:27;7.37;;;1.77;;
69008;SDS011;56065;52.472;13.380;2022-12-07T12:10:56;7.78;;;2.00;;
69008;SDS011;56065;52.472;13.380;2022-12-07T12:13:40;5.05;;;1.27;;
69008;SDS011;56065;52.472;13.380;2022-12-07T12:22:06;6.27;;;1.50;;
69008;SDS011;56065;52.472;13.380;2022-12-07T12:24:40;4.95;;;1.55;;
69008;SDS011;56065;52.472;13.380;2022-12-07T12:27:17;7.93;;;1.60;;
69008;SDS011;56065;52.472;13.380;2022-12-07T12:29:51;9.23;;;1.30;;
69008;SDS011;56065;52.472;13.380;2022-12-07T12:32:24;6.45;;;1.30;;
69008;SDS011;56065;52.472;13.380;2022-12-07T12:35:01;6.93;;;1.60;;
69008;SDS011;56065;52.472;13.380;2022-12-07T12:37:45;5.35;;;1.38;;
69008;SDS011;56065;52.472;13.380;2022-12-07T12:43:41;6.38;;;1.50;;
69008;SDS011;56065;52.472;13.380;2022-12-07T12:46:22;7.90;;;1.38;;
69008;SDS011;56065;52.472;13.380;2022-12-07T12:51:41;4.90;;;1.40;;
69008;SDS011;56065;52.472;13.380;2022-12-07T12:54:12;7.15;;;1.75;;
69008;SDS011;56065;52.472;13.380;2022-12-07T12:59:35;5.82;;;1.65;;
69008;SDS011;56065;52.472;13.380;2022-12-07T13:10:22;6.45;;;1.50;;
69008;SDS011;56065;52.472;13.380;2022-12-07T13:12:56;6.75;;;1.50;;
69008;SDS011;56065;52.472;13.380;2022-12-07T13:18:23;5.80;;;1.27;;
69008;SDS011;56065;52.472;13.380;2022-12-07T13:24:07;5.72;;;1.35;;
69008;SDS011;56065;52.472;13.380;2022-12-07T13:31:40;7.30;;;1.75;;
69008;SDS011;56065;52.472;13.380;2022-12-07T13:36:58;6.22;;;1.10;;
69008;SDS011;56065;52.472;13.380;2022-12-07T13:39:27;5.88;;;1.15;;
69008;SDS011;56065;52.472;13.380;2022-12-07T13:41:56;6.10;;;1.30;;
69008;SDS011;56065;52.472;13.380;2022-12-07T13:44:24;6.38;;;1.63;;
69008;SDS011;56065;52.472;13.380;2022-12-07T13:49:36;4.63;;;1.05;;
69008;SDS011;56065;52.472;13.380;2022-12-07T13:55:11;2.90;;;0.87;;
69008;SDS011;56065;52.472;13.380;2022-12-07T13:57:40;14.98;;;1.45;;
69008;SDS011;56065;52.472;13.380;2022-12-07T14:00:13;5.97;;;1.13;;
69008;SDS011;56065;52.472;13.380;2022-12-07T14:05:25;6.20;;;1.00;;
69008;SDS011;56065;52.472;13.380;2022-12-07T14:07:56;6.93;;;0.93;;
69008;SDS011;56065;52.472;13.380;2022-12-07T14:10:28;4.50;;;1.20;;
69008;SDS011;56065;52.472;13.380;2022-12-07T14:12:56;5.50;;;1.00;;
69008;SDS011;56065;52.472;13.380;2022-12-07T14:15:23;6.38;;;1.08;;
69008;SDS011;56065;52.472;13.380;2022-12-07T14:17:53;6.70;;;1.08;;
69008;SDS011;56065;52.472;13.380;2022-12-07T14:22:58;5.95;;;1.10;;
69008;SDS011;56065;52.472;13.380;2022-12-07T14:25:25;6.53;;;1.17;;
69008;SDS011;56065;52.472;13.380;2022-12-07T14:27:58;6.60;;;1.20;;
69008;SDS011;56065;52.472;13.380;2022-12-07T14:30:29;4.55;;;1.17;;
69008;SDS011;56065;52.472;13.380;2022-12-07T14:33:01;6.15;;;0.88;;
69008;SDS011;56065;52.472;13.380;2022-12-07T14:35:28;7.32;;;1.20;;
69008;SDS011;56065;52.472;13.380;2022-12-07T14:37:54;7.65;;;1.08;;
69008;SDS011;56065;52.472;13.380;2022-12-07T14:40:21;7.27;;;1.00;;
69008;SDS011;56065;52.472;13.380;2022-12-07T14:43:11;4.90;;;1.15;;
69008;SDS011;56065;52.472;13.380;2022-12-07T14:45:39;4.53;;;1.13;;
69008;SDS011;56065;52.472;13.380;2022-12-07T14:48:05;4.63;;;0.93;;
69008;SDS011;56065;52.472;13.380;2022-12-07T14:50:34;4.45;;;0.77;;
69008;SDS011;56065;52.472;13.380;2022-12-07T14:53:04;6.13;;;1.40;;
69008;SDS011;56065;52.472;13.380;2022-12-07T14:55:35;8.40;;;1.20;;
69008;SDS011;56065;52.472;13.380;2022-12-07T14:58:01;6.20;;;1.20;;
69008;SDS011;56065;52.472;13.380;2022-12-07T15:00:27;5.65;;;1.38;;
69008;SDS011;56065;52.472;13.380;2022-12-07T15:02:54;7.20;;;0.93;;
69008;SDS011;56065;52.472;13.380;2022-12-07T15:05:20;7.40;;;0.90;;
69008;SDS011;56065;52.472;13.380;2022-12-07T15:07:46;5.13;;;1.13;;
69008;SDS011;56065;52.472;13.380;2022-12-07T15:10:45;7.95;;;1.17;;
69008;SDS011;56065;52.472;13.380;2022-12-07T15:13:05;6.43;;;1.02;;
69008;SDS011;56065;52.472;13.380;2022-12-07T15:15:50;7.20;;;1.13;;
69008;SDS011;56065;52.472;13.380;2022-12-07T15:18:17;8.38;;;1.40;;
69008;SDS011;56065;52.472;13.380;2022-12-07T15:20:43;9.45;;;1.33;;
69008;SDS011;56065;52.472;13.380;2022-12-07T15:23:10;5.68;;;1.15;;
69008;SDS011;56065;52.472;13.380;2022-12-07T15:25:40;8.00;;;1.00;;
69008;SDS011;56065;52.472;13.380;2022-12-07T15:28:05;9.23;;;1.40;;
69008;SDS011;56065;52.472;13.380;2022-12-07T15:30:31;6.03;;;1.10;;
69008;SDS011;56065;52.472;13.380;2022-12-07T15:32:56;6.27;;;1.17;;
69008;SDS011;56065;52.472;13.380;2022-12-07T15:35:21;5.35;;;1.20;;
69008;SDS011;56065;52.472;13.380;2022-12-07T15:37:47;5.80;;;1.00;;
69008;SDS011;56065;52.472;13.380;2022-12-07T15:40:12;8.30;;;1.33;;
69008;SDS011;56065;52.472;13.380;2022-12-07T15:42:39;8.48;;;1.30;;
69008;SDS011;56065;52.472;13.380;2022-12-07T15:45:05;8.05;;;1.35;;
69008;SDS011;56065;52.472;13.380;2022-12-07T15:47:33;7.28;;;1.70;;
69008;SDS011;56065;52.472;13.380;2022-12-07T15:50:01;4.43;;;1.00;;
69008;SDS011;56065;52.472;13.380;2022-12-07T15:52:28;6.60;;;1.10;;
69008;SDS011;56065;52.472;13.380;2022-12-07T15:54:53;9.20;;;1.10;;
69008;SDS011;56065;52.472;13.380;2022-12-07T15:57:18;6.32;;;1.17;;
69008;SDS011;56065;52.472;13.380;2022-12-07T15:59:44;6.90;;;1.27;;
69008;SDS011;56065;52.472;13.380;2022-12-07T16:02:09;5.70;;;1.40;;
69008;SDS011;56065;52.472;13.380;2022-12-07T16:04:35;5.67;;;1.13;;
69008;SDS011;56065;52.472;13.380;2022-12-07T16:07:01;6.25;;;1.10;;
69008;SDS011;56065;52.472;13.380;2022-12-07T16:09:27;5.55;;;1.60;;
69008;SDS011;56065;52.472;13.380;2022-12-07T16:11:52;9.30;;;1.10;;
69008;SDS011;56065;52.472;13.380;2022-12-07T16:14:18;7.63;;;1.37;;
69008;SDS011;56065;52.472;13.380;2022-12-07T16:16:43;7.47;;;1.70;;
69008;SDS011;56065;52.472;13.380;2022-12-07T16:19:08;8.13;;;1.20;;
69008;SDS011;56065;52.472;13.380;2022-12-07T16:21:35;5.32;;;1.10;;
69008;SDS011;56065;52.472;13.380;2022-12-07T16:24:01;8.93;;;1.20;;
69008;SDS011;56065;52.472;13.380;2022-12-07T16:26:26;6.93;;;1.13;;
69008;SDS011;56065;52.472;13.380;2022-12-07T16:28:52;6.13;;;1.00;;
69008;SDS011;56065;52.472;13.380;2022-12-07T16:31:19;5.95;;;0.95;;
69008;SDS011;56065;52.472;13.380;2022-12-07T16:33:46;8.10;;;1.20;;
69008;SDS011;56065;52.472;13.380;2022-12-07T16:36:13;9.25;;;1.45;;
69008;SDS011;56065;52.472;13.380;2022-12-07T16:38:41;10.35;;;1.55;;
69008;SDS011;56065;52.472;13.380;2022-12-07T16:41:07;7.60;;;1.45;;
69008;SDS011;56065;52.472;13.380;2022-12-07T16:43:33;9.65;;;1.45;;
69008;SDS011;56065;52.472;13.380;2022-12-07T16:45:59;9.23;;;1.50;;
69008;SDS011;56065;52.472;13.380;2022-12-07T16:48:24;5.32;;;0.85;;
69008;SDS011;56065;52.472;13.380;2022-12-07T16:50:50;10.50;;;1.27;;